Sandy, Texas
Current Conditions -  °F | °C
As of 11:15 PM on Thursday 27 Nov 2014 (Local Time) from KDZB Reporting Station
Clear Clear  
Wind Chill: 46°   Ceiling: Unl
Heat Index: 49°   Visibility: 10mi
Dew Point: 32°   Wind: 6mph
Humidity: 54%   Direction: 170°S
Pressure: 30.37"   Gusts: NA
Location:  30.36°N, 98.47°W
Report Text: KDZB 280515Z AUTO 17005KT 10SM CLR 09/00 A3037 RMK AO2 T00920002
Loading
Personal Weather Stations






























Interactive Weather Map New forecast layout! Learn more

10-Day Weather Forecast

Advertisements
Track Severe Weather on mobile